Joffre, Pennsylvania
Current Conditions -  °F | °C
As of 9:51 PM on Thursday 18 Dec 2014 (Local Time) from KPIT Reporting Station
Overcast Overcast  
Wind Chill: 20°   Ceiling: 1700
Heat Index: 28°   Visibility: 10mi
Dew Point: 21°   Wind: 8mph
Humidity: 75%   Direction: 270°W
Pressure: 30.13"   Gusts: NA
Location:  40.38°N, 80.36°W
Report Text: KPIT 190251Z 27007KT 10SM OVC017 M02/M06 A3013 RMK AO2 SLP226 T10221061 58006
Loading
Personal Weather Stations






























Interactive Weather Map New forecast layout! Learn more

10-Day Weather Forecast

Advertisements
Track Severe Weather on mobile